Time;durP1;ratioP1;P1;durP2;ratioP2;P2;SDS_P1;SDS_P2;PMS_P1;PMS_P2;Temp;Humidity;BMP_temperature;BMP_pressure;BME280_temperature;BME280_humidity;BME280_pressure;Samples;Min_cycle;Max_cycle;Signal;HPM_P1;HPM_P2
2023/06/30 00:00:12;;;;;;;8.82;6.40;;;;;;;;;;4955251;28;20026;-75
2023/06/30 00:02:40;;;;;;;9.80;6.20;;;;;;;;;;4948092;28;20076;-76
2023/06/30 00:05:06;;;;;;;7.70;6.05;;;;;;;;;;4950352;28;20023;-77
2023/06/30 00:07:31;;;;;;;8.15;5.78;;;;;;;;;;4949758;28;20023;-77
2023/06/30 00:09:56;;;;;;;10.10;7.10;;;;;;;;;;4954827;28;20029;-76
2023/06/30 00:12:22;;;;;;;9.30;6.40;;;;;;;;;;4955744;28;20383;-77
2023/06/30 00:14:47;;;;;;;11.45;6.90;;;;;;;;;;4953181;28;20019;-77
2023/06/30 00:17:12;;;;;;;10.60;6.03;;;;;;;;;;4952022;28;20023;-77
2023/06/30 00:19:38;;;;;;;9.75;5.85;;;;;;;;;;4958265;28;20105;-77
2023/06/30 00:22:03;;;;;;;10.07;6.75;;;;;;;;;;4951227;28;20035;-76
2023/06/30 00:24:29;;;;;;;8.40;6.07;;;;;;;;;;4953143;28;20054;-77
2023/06/30 00:26:54;;;;;;;8.48;5.47;;;;;;;;;;4949787;28;20903;-76
2023/06/30 00:29:20;;;;;;;9.70;6.35;;;;;;;;;;4949998;28;20098;-76
2023/06/30 00:31:45;;;;;;;9.35;6.20;;;;;;;;;;4953969;28;20595;-75
2023/06/30 00:34:10;;;;;;;8.02;5.82;;;;;;;;;;4952666;28;20023;-76
2023/06/30 00:36:36;;;;;;;9.00;5.55;;;;;;;;;;4948085;28;20031;-75
2023/06/30 00:39:01;;;;;;;8.77;5.95;;;;;;;;;;4949610;28;20027;-75
2023/06/30 00:41:26;;;;;;;8.80;5.05;;;;;;;;;;4950859;28;20034;-75
2023/06/30 00:43:52;;;;;;;9.32;6.13;;;;;;;;;;4952397;28;20023;-75
2023/06/30 00:46:18;;;;;;;7.55;5.70;;;;;;;;;;4954988;28;20557;-75
2023/06/30 00:48:44;;;;;;;9.45;5.68;;;;;;;;;;4950650;28;20023;-75
2023/06/30 00:51:11;;;;;;;8.77;6.22;;;;;;;;;;4946140;28;20637;-75
2023/06/30 00:53:37;;;;;;;7.47;5.57;;;;;;;;;;4958325;28;20022;-75
2023/06/30 00:56:03;;;;;;;6.30;4.85;;;;;;;;;;4955208;28;20020;-75
2023/06/30 00:58:28;;;;;;;8.55;5.35;;;;;;;;;;4953847;28;20066;-75
2023/06/30 01:01:07;;;;;;;8.23;5.40;;;;;;;;;;4956884;28;20054;-75
2023/06/30 01:03:56;;;;;;;7.93;5.32;;;;;;;;;;4961172;28;20018;-75
2023/06/30 01:06:37;;;;;;;8.68;5.53;;;;;;;;;;4960853;28;20038;-75
2023/06/30 01:09:13;;;;;;;9.35;5.30;;;;;;;;;;4957972;28;20022;-75
2023/06/30 01:11:39;;;;;;;9.88;6.25;;;;;;;;;;4952393;28;20508;-75
2023/06/30 01:14:09;;;;;;;7.00;4.95;;;;;;;;;;4957497;28;20035;-75
2023/06/30 01:16:35;;;;;;;9.05;5.53;;;;;;;;;;4952297;28;20094;-75
2023/06/30 01:19:06;;;;;;;8.80;6.45;;;;;;;;;;4952253;28;20035;-75
2023/06/30 01:21:31;;;;;;;;;;;;;;;;;;4955242;28;20093;-75
2023/06/30 01:24:04;;;;;;;8.63;5.57;;;;;;;;;;4954207;28;20383;-75
2023/06/30 01:26:34;;;;;;;9.32;6.22;;;;;;;;;;4951489;28;20129;-76
2023/06/30 01:29:03;;;;;;;6.88;5.20;;;;;;;;;;4955252;28;20026;-75
2023/06/30 01:31:31;;;;;;;8.13;5.57;;;;;;;;;;4959297;28;20031;-75
2023/06/30 01:33:59;;;;;;;9.00;5.82;;;;;;;;;;4953166;28;20023;-75
2023/06/30 01:36:25;;;;;;;8.85;6.45;;;;;;;;;;4959255;28;20023;-75
2023/06/30 01:38:50;;;;;;;10.80;5.88;;;;;;;;;;4955068;28;20026;-75
2023/06/30 01:41:16;;;;;;;10.20;6.70;;;;;;;;;;4951177;28;20535;-76
2023/06/30 01:43:42;;;;;;;11.30;6.90;;;;;;;;;;4954203;28;20026;-77
2023/06/30 01:46:08;;;;;;;11.68;7.25;;;;;;;;;;4955521;28;20038;-77
2023/06/30 01:48:34;;;;;;;7.93;5.95;;;;;;;;;;4953981;28;20031;-77
2023/06/30 01:51:00;;;;;;;8.75;6.20;;;;;;;;;;4957108;28;20035;-77
2023/06/30 01:53:26;;;;;;;7.72;5.38;;;;;;;;;;4955818;28;20499;-78
2023/06/30 01:55:54;;;;;;;6.78;4.53;;;;;;;;;;4953035;28;20031;-77
2023/06/30 01:58:19;;;;;;;7.40;5.30;;;;;;;;;;4951647;28;20546;-76
2023/06/30 02:00:45;;;;;;;9.98;5.65;;;;;;;;;;4955562;28;20027;-76
2023/06/30 02:03:10;;;;;;;8.95;5.80;;;;;;;;;;4956849;28;20023;-76
2023/06/30 02:05:35;;;;;;;9.68;6.20;;;;;;;;;;4953062;28;20019;-76
2023/06/30 02:08:01;;;;;;;8.13;5.88;;;;;;;;;;4953062;28;20019;-75
2023/06/30 02:10:26;;;;;;;9.27;5.82;;;;;;;;;;4958084;28;20103;-75
2023/06/30 02:12:51;;;;;;;9.68;6.07;;;;;;;;;;4955728;28;20510;-75
2023/06/30 02:15:17;;;;;;;10.15;5.97;;;;;;;;;;4957779;28;20038;-76
2023/06/30 02:17:42;;;;;;;10.18;6.63;;;;;;;;;;4952365;28;20100;-76
2023/06/30 02:20:09;;;;;;;11.00;7.25;;;;;;;;;;4952506;28;20019;-76
2023/06/30 02:22:37;;;;;;;10.07;6.07;;;;;;;;;;4957434;28;20508;-75
2023/06/30 02:25:03;;;;;;;10.02;6.50;;;;;;;;;;4957180;28;20042;-75
2023/06/30 02:27:28;;;;;;;8.95;6.03;;;;;;;;;;4953225;28;20024;-74
2023/06/30 02:29:54;;;;;;;11.90;6.60;;;;;;;;;;4955947;28;20027;-76
2023/06/30 02:32:19;;;;;;;7.97;5.70;;;;;;;;;;4960616;28;20102;-75
2023/06/30 02:34:45;;;;;;;8.48;5.78;;;;;;;;;;4958466;28;20105;-75
2023/06/30 02:37:10;;;;;;;8.88;5.60;;;;;;;;;;4950379;28;20023;-75
2023/06/30 02:39:35;;;;;;;9.82;6.57;;;;;;;;;;4951611;28;20500;-76
2023/06/30 02:42:01;;;;;;;9.07;6.13;;;;;;;;;;4950377;28;20034;-75
2023/06/30 02:44:26;;;;;;;10.52;6.32;;;;;;;;;;4945913;28;20103;-75
2023/06/30 02:46:52;;;;;;;11.98;7.50;;;;;;;;;;4953321;28;20093;-75
2023/06/30 02:49:17;;;;;;;10.55;6.95;;;;;;;;;;4952409;28;20046;-75
2023/06/30 02:51:42;;;;;;;12.32;7.88;;;;;;;;;;4950294;28;20016;-75
2023/06/30 02:54:08;;;;;;;12.80;7.43;;;;;;;;;;4958327;28;20031;-75
2023/06/30 02:56:33;;;;;;;9.10;5.68;;;;;;;;;;4959592;28;20107;-75
2023/06/30 02:58:58;;;;;;;8.38;5.57;;;;;;;;;;4954357;28;20031;-75
2023/06/30 03:01:24;;;;;;;9.63;6.30;;;;;;;;;;4948609;28;20027;-75
2023/06/30 03:03:50;;;;;;;10.07;6.55;;;;;;;;;;4950279;28;20031;-75
2023/06/30 03:06:15;;;;;;;12.00;6.78;;;;;;;;;;4954918;28;20034;-75
2023/06/30 03:08:42;;;;;;;9.07;6.13;;;;;;;;;;4954818;28;20015;-75
2023/06/30 03:11:07;;;;;;;10.73;6.57;;;;;;;;;;4951349;28;20400;-75
2023/06/30 03:13:33;;;;;;;7.28;5.13;;;;;;;;;;4949044;28;20019;-75
2023/06/30 03:15:58;;;;;;;13.18;6.85;;;;;;;;;;4952766;28;20031;-75
2023/06/30 03:18:23;;;;;;;9.25;6.00;;;;;;;;;;4949031;28;20123;-75
2023/06/30 03:20:49;;;;;;;9.40;6.22;;;;;;;;;;4944271;28;20439;-75
2023/06/30 03:23:15;;;;;;;10.50;6.97;;;;;;;;;;4947415;28;20077;-75
2023/06/30 03:25:41;;;;;;;11.82;7.38;;;;;;;;;;4950196;28;20070;-75
2023/06/30 03:28:06;;;;;;;12.68;7.60;;;;;;;;;;4948852;28;20607;-74
2023/06/30 03:30:31;;;;;;;8.57;6.20;;;;;;;;;;4951422;28;20038;-75
2023/06/30 03:32:57;;;;;;;8.57;5.63;;;;;;;;;;4950081;28;20039;-75
2023/06/30 03:35:22;;;;;;;11.30;7.45;;;;;;;;;;4957278;28;20655;-75
2023/06/30 03:37:48;;;;;;;11.82;7.75;;;;;;;;;;4955277;28;20039;-75
2023/06/30 03:40:13;;;;;;;10.38;6.30;;;;;;;;;;4954556;28;20035;-75
2023/06/30 03:42:38;;;;;;;11.15;7.60;;;;;;;;;;4949681;28;20026;-75
2023/06/30 03:45:04;;;;;;;11.13;7.10;;;;;;;;;;4954748;28;20031;-75
2023/06/30 03:47:30;;;;;;;12.38;7.80;;;;;;;;;;4956550;28;20662;-75
2023/06/30 03:49:55;;;;;;;11.50;6.97;;;;;;;;;;4956594;28;20091;-75
2023/06/30 03:52:21;;;;;;;17.38;9.30;;;;;;;;;;4949575;28;20508;-75
2023/06/30 03:54:46;;;;;;;10.23;6.03;;;;;;;;;;4953572;28;20117;-75
2023/06/30 03:57:11;;;;;;;14.32;7.82;;;;;;;;;;4951379;28;20023;-75
2023/06/30 03:59:37;;;;;;;13.88;7.78;;;;;;;;;;4961146;28;20479;-75
2023/06/30 04:02:02;;;;;;;11.20;7.28;;;;;;;;;;4951749;28;20026;-75
2023/06/30 04:04:28;;;;;;;15.75;8.90;;;;;;;;;;4952328;28;20023;-76
2023/06/30 04:06:53;;;;;;;17.88;11.05;;;;;;;;;;4958414;28;20027;-75
2023/06/30 04:09:18;;;;;;;14.82;8.65;;;;;;;;;;4950961;28;20023;-75
2023/06/30 04:11:44;;;;;;;18.42;10.60;;;;;;;;;;4956904;28;20655;-75
2023/06/30 04:14:10;;;;;;;15.73;9.63;;;;;;;;;;4950057;28;20033;-75
2023/06/30 04:16:35;;;;;;;7.85;4.95;;;;;;;;;;4949513;28;20451;-76
2023/06/30 04:19:00;;;;;;;13.40;8.45;;;;;;;;;;4957818;28;20034;-75
2023/06/30 04:21:26;;;;;;;10.98;7.38;;;;;;;;;;4949685;28;20034;-76
2023/06/30 04:23:51;;;;;;;8.60;5.53;;;;;;;;;;4944907;28;20030;-76
2023/06/30 04:26:17;;;;;;;12.98;7.93;;;;;;;;;;4953595;28;20025;-75
2023/06/30 04:28:43;;;;;;;8.80;5.68;;;;;;;;;;4953602;28;20473;-76
2023/06/30 04:31:08;;;;;;;7.10;5.03;;;;;;;;;;4952619;28;20035;-75
2023/06/30 04:33:34;;;;;;;12.77;7.88;;;;;;;;;;4954185;28;20096;-75
2023/06/30 04:35:59;;;;;;;19.48;10.93;;;;;;;;;;4949152;28;20019;-75
2023/06/30 04:38:25;;;;;;;13.15;8.30;;;;;;;;;;4947330;28;20477;-75
2023/06/30 04:40:50;;;;;;;23.75;13.88;;;;;;;;;;4948156;28;20078;-75
2023/06/30 04:43:16;;;;;;;7.85;5.88;;;;;;;;;;4954899;28;20035;-75
2023/06/30 04:45:42;;;;;;;14.43;9.35;;;;;;;;;;4950226;28;20089;-75
2023/06/30 04:48:07;;;;;;;8.05;5.75;;;;;;;;;;4948933;28;20022;-75
2023/06/30 04:50:33;;;;;;;20.90;11.63;;;;;;;;;;4953544;28;20031;-75
2023/06/30 04:52:59;;;;;;;16.95;9.65;;;;;;;;;;4952941;28;20506;-75
2023/06/30 04:55:24;;;;;;;21.05;12.25;;;;;;;;;;4954600;28;20493;-76
2023/06/30 04:57:49;;;;;;;17.08;10.43;;;;;;;;;;4949663;28;20032;-75
2023/06/30 05:00:15;;;;;;;14.38;8.65;;;;;;;;;;4950562;28;20028;-75
2023/06/30 05:02:40;;;;;;;23.02;12.93;;;;;;;;;;4955327;28;20690;-75
2023/06/30 05:05:06;;;;;;;24.83;14.35;;;;;;;;;;4955807;28;20420;-75
2023/06/30 05:07:32;;;;;;;10.02;6.35;;;;;;;;;;4955844;28;20030;-75
2023/06/30 05:09:57;;;;;;;23.65;13.27;;;;;;;;;;4950030;28;20042;-73
2023/06/30 05:12:22;;;;;;;15.48;8.15;;;;;;;;;;4944528;28;20651;-74
2023/06/30 05:14:49;;;;;;;11.70;7.55;;;;;;;;;;4948146;28;20027;-75
2023/06/30 05:17:14;;;;;;;8.93;6.30;;;;;;;;;;4944519;28;20031;-74
2023/06/30 05:19:41;;;;;;;18.58;10.50;;;;;;;;;;4946957;28;20097;-74
2023/06/30 05:22:07;;;;;;;11.88;7.20;;;;;;;;;;4949634;28;20042;-74
2023/06/30 05:24:33;;;;;;;16.40;9.23;;;;;;;;;;4949852;28;20035;-74
2023/06/30 05:26:59;;;;;;;19.70;11.73;;;;;;;;;;4946221;28;20104;-74
2023/06/30 05:29:24;;;;;;;11.02;6.80;;;;;;;;;;4943669;28;20480;-73
2023/06/30 05:31:50;;;;;;;9.75;7.15;;;;;;;;;;4949338;28;20052;-74
2023/06/30 05:34:15;;;;;;;21.38;12.60;;;;;;;;;;4953915;28;20568;-74
2023/06/30 05:36:46;;;;;;;21.55;12.70;;;;;;;;;;4952410;28;20015;-74
2023/06/30 05:39:12;;;;;;;;;;;;;;;;;;4955242;28;20097;-75
2023/06/30 05:41:37;;;;;;;22.02;12.98;;;;;;;;;;4953888;28;20597;-74
2023/06/30 05:44:03;;;;;;;12.20;8.00;;;;;;;;;;4955099;28;20448;-75
2023/06/30 05:46:28;;;;;;;15.38;10.05;;;;;;;;;;4958982;28;20074;-74
2023/06/30 05:48:54;;;;;;;12.57;8.43;;;;;;;;;;4956508;28;20019;-75
2023/06/30 05:51:19;;;;;;;11.27;7.30;;;;;;;;;;4952035;28;20062;-75
2023/06/30 05:53:45;;;;;;;11.05;7.65;;;;;;;;;;4953546;28;20023;-74
2023/06/30 05:56:11;;;;;;;21.13;12.57;;;;;;;;;;4954143;28;20027;-74
2023/06/30 05:58:39;;;;;;;23.80;13.20;;;;;;;;;;4964017;28;20029;-75
2023/06/30 06:01:04;;;;;;;11.65;7.20;;;;;;;;;;4951575;28;20106;-74
2023/06/30 06:03:30;;;;;;;17.23;9.23;;;;;;;;;;4952778;28;20055;-74
2023/06/30 06:05:58;;;;;;;9.50;6.30;;;;;;;;;;4955876;28;20031;-74
2023/06/30 06:08:24;;;;;;;17.13;10.75;;;;;;;;;;4954256;28;20069;-74
2023/06/30 06:10:49;;;;;;;11.77;7.32;;;;;;;;;;4959548;28;20101;-74
2023/06/30 06:13:35;;;;;;;20.90;11.73;;;;;;;;;;4953127;28;20533;-74
2023/06/30 06:16:01;;;;;;;23.67;12.57;;;;;;;;;;4953223;28;20106;-75
2023/06/30 06:18:27;;;;;;;16.17;10.77;;;;;;;;;;4957234;28;20031;-75
2023/06/30 06:20:52;;;;;;;14.95;9.10;;;;;;;;;;4959472;28;20023;-75
2023/06/30 06:23:17;;;;;;;19.33;10.95;;;;;;;;;;4955584;28;20494;-75
2023/06/30 06:25:43;;;;;;;15.43;8.98;;;;;;;;;;4957268;28;20105;-75
2023/06/30 06:28:08;;;;;;;19.52;12.10;;;;;;;;;;4954546;28;20018;-75
2023/06/30 06:30:33;;;;;;;13.27;8.15;;;;;;;;;;4958826;28;20660;-75
2023/06/30 06:32:59;;;;;;;20.42;12.50;;;;;;;;;;4955336;28;20038;-74
2023/06/30 06:35:24;;;;;;;11.98;7.68;;;;;;;;;;4953811;28;20435;-74
2023/06/30 06:37:50;;;;;;;17.15;9.90;;;;;;;;;;4939693;28;20031;-74
2023/06/30 06:40:15;;;;;;;14.05;8.57;;;;;;;;;;4951306;28;20037;-74
2023/06/30 06:42:40;;;;;;;14.48;8.75;;;;;;;;;;4955168;28;20547;-75
2023/06/30 06:45:06;;;;;;;11.13;7.13;;;;;;;;;;4949980;28;20019;-75
2023/06/30 06:48:09;;;;;;;18.15;10.35;;;;;;;;;;4942992;28;20039;-75
2023/06/30 06:50:34;;;;;;;23.95;13.13;;;;;;;;;;4954270;28;20029;-74
2023/06/30 06:52:59;;;;;;;25.05;13.48;;;;;;;;;;4950741;28;20111;-74
2023/06/30 06:55:25;;;;;;;25.15;14.20;;;;;;;;;;4951554;28;20019;-74
2023/06/30 06:57:50;;;;;;;22.73;13.68;;;;;;;;;;4950013;28;20042;-73
2023/06/30 07:00:17;;;;;;;14.30;8.30;;;;;;;;;;4949740;28;20058;-74
2023/06/30 07:02:42;;;;;;;16.90;9.63;;;;;;;;;;4951795;28;20492;-74
2023/06/30 07:05:08;;;;;;;24.90;14.32;;;;;;;;;;4954157;28;20117;-74
2023/06/30 07:07:33;;;;;;;27.08;14.73;;;;;;;;;;4950909;28;20500;-74
2023/06/30 07:09:59;;;;;;;12.77;8.82;;;;;;;;;;4951975;28;20019;-74
2023/06/30 07:12:24;;;;;;;27.73;15.63;;;;;;;;;;4950872;28;20387;-74
2023/06/30 07:14:49;;;;;;;17.75;10.20;;;;;;;;;;4951143;28;20026;-74
2023/06/30 07:17:15;;;;;;;13.43;7.85;;;;;;;;;;4950132;28;20038;-74
2023/06/30 07:19:41;;;;;;;14.98;9.73;;;;;;;;;;4950357;28;20093;-74
2023/06/30 07:22:06;;;;;;;20.92;13.23;;;;;;;;;;4948165;28;20027;-74
2023/06/30 07:24:32;;;;;;;19.33;10.18;;;;;;;;;;4951579;28;20034;-74
2023/06/30 07:26:58;;;;;;;21.08;12.23;;;;;;;;;;4949188;28;20038;-74
2023/06/30 07:29:24;;;;;;;16.10;9.77;;;;;;;;;;4950238;28;20015;-74
2023/06/30 07:31:49;;;;;;;9.80;6.57;;;;;;;;;;4949382;28;20042;-74
2023/06/30 07:34:18;;;;;;;9.35;6.65;;;;;;;;;;4955143;28;20114;-74
2023/06/30 07:36:46;;;;;;;8.43;5.80;;;;;;;;;;4949084;28;20055;-74
2023/06/30 07:39:12;;;;;;;12.85;7.45;;;;;;;;;;4946959;28;20042;-74
2023/06/30 07:41:37;;;;;;;14.32;8.20;;;;;;;;;;4950341;28;20031;-75
2023/06/30 07:44:03;;;;;;;10.40;6.72;;;;;;;;;;4939264;28;20027;-74
2023/06/30 07:46:29;;;;;;;11.60;7.55;;;;;;;;;;4943894;28;20038;-74
2023/06/30 07:48:54;;;;;;;16.98;9.23;;;;;;;;;;4948712;28;20089;-74
2023/06/30 07:51:20;;;;;;;18.23;10.20;;;;;;;;;;4952024;28;20604;-74
2023/06/30 07:53:45;;;;;;;23.70;13.20;;;;;;;;;;4954920;28;20033;-74
2023/06/30 07:56:10;;;;;;;16.08;9.43;;;;;;;;;;4949040;28;20545;-74
2023/06/30 07:58:36;;;;;;;29.30;13.70;;;;;;;;;;4951060;28;20031;-75
2023/06/30 08:01:02;;;;;;;16.70;9.00;;;;;;;;;;4949449;28;20039;-73
2023/06/30 08:03:27;;;;;;;19.20;10.68;;;;;;;;;;4951207;28;20494;-75
2023/06/30 08:05:53;;;;;;;20.70;11.63;;;;;;;;;;4950337;28;20019;-75
2023/06/30 08:08:18;;;;;;;23.20;12.63;;;;;;;;;;4952037;28;20143;-75
2023/06/30 08:10:44;;;;;;;14.02;8.70;;;;;;;;;;4947782;28;20109;-74
2023/06/30 08:13:09;;;;;;;20.25;11.82;;;;;;;;;;4949676;28;20022;-75
2023/06/30 08:15:35;;;;;;;14.27;8.07;;;;;;;;;;4951638;28;20041;-74
2023/06/30 08:18:00;;;;;;;14.52;8.52;;;;;;;;;;4952663;28;20789;-74
2023/06/30 08:20:25;;;;;;;12.88;7.95;;;;;;;;;;4951881;28;20047;-74
2023/06/30 08:22:51;;;;;;;12.52;8.43;;;;;;;;;;4947936;28;20031;-74
2023/06/30 08:25:19;;;;;;;14.73;9.30;;;;;;;;;;4948695;28;20118;-74
2023/06/30 08:27:44;;;;;;;17.40;10.15;;;;;;;;;;4942965;28;20034;-74
2023/06/30 08:30:10;;;;;;;18.85;11.02;;;;;;;;;;4947532;28;20035;-74
2023/06/30 08:32:35;;;;;;;18.25;10.05;;;;;;;;;;4947802;28;20070;-74
2023/06/30 08:35:01;;;;;;;17.80;9.63;;;;;;;;;;4948380;28;20054;-74
2023/06/30 08:37:26;;;;;;;10.82;6.35;;;;;;;;;;4947954;28;20035;-74
2023/06/30 08:39:51;;;;;;;13.70;8.48;;;;;;;;;;4947216;28;20042;-74
2023/06/30 08:42:22;;;;;;;13.50;8.35;;;;;;;;;;4945339;28;20068;-74
2023/06/30 08:44:52;;;;;;;10.30;6.85;;;;;;;;;;4945457;28;20133;-74
2023/06/30 08:47:20;;;;;;;10.43;6.32;;;;;;;;;;4947992;28;20031;-74
2023/06/30 08:49:47;;;;;;;9.68;5.32;;;;;;;;;;4949389;28;20015;-74
2023/06/30 08:52:14;;;;;;;8.15;5.57;;;;;;;;;;4953559;28;20049;-74
2023/06/30 08:54:40;;;;;;;7.47;4.35;;;;;;;;;;4946138;28;20416;-74
2023/06/30 08:57:06;;;;;;;5.32;3.63;;;;;;;;;;4950168;28;20024;-74
2023/06/30 08:59:31;;;;;;;7.13;4.38;;;;;;;;;;4931272;28;20038;-74
2023/06/30 09:01:57;;;;;;;7.18;4.88;;;;;;;;;;4947367;28;20026;-74
2023/06/30 09:04:23;;;;;;;6.72;4.72;;;;;;;;;;4946034;28;20043;-74
2023/06/30 09:06:49;;;;;;;5.93;3.80;;;;;;;;;;4946162;28;20155;-74
2023/06/30 09:09:25;;;;;;;7.53;4.45;;;;;;;;;;4948523;28;20033;-74
2023/06/30 09:11:51;;;;;;;5.90;4.10;;;;;;;;;;4948330;28;20019;-74
2023/06/30 09:14:18;;;;;;;5.95;2.67;;;;;;;;;;4953965;28;20027;-74
2023/06/30 09:16:45;;;;;;;5.30;2.85;;;;;;;;;;4953071;28;20027;-74
2023/06/30 09:19:12;;;;;;;4.72;3.08;;;;;;;;;;4951278;28;20031;-74
2023/06/30 09:21:38;;;;;;;5.60;3.70;;;;;;;;;;4948100;28;20055;-74
2023/06/30 09:24:03;;;;;;;5.13;2.75;;;;;;;;;;4952491;28;20047;-74
2023/06/30 09:26:30;;;;;;;4.32;3.13;;;;;;;;;;4951830;28;20022;-74
2023/06/30 09:28:56;;;;;;;4.40;2.75;;;;;;;;;;4951271;28;20552;-74
2023/06/30 09:31:29;;;;;;;5.32;3.42;;;;;;;;;;4951979;28;20125;-74
2023/06/30 09:34:07;;;;;;;3.45;2.22;;;;;;;;;;4966938;28;20026;-74
2023/06/30 09:36:34;;;;;;;3.75;2.47;;;;;;;;;;4954517;28;20030;-74
2023/06/30 09:38:59;;;;;;;2.80;1.65;;;;;;;;;;4950592;28;20496;-74
2023/06/30 09:41:26;;;;;;;1.80;1.38;;;;;;;;;;4952093;28;20106;-74
2023/06/30 09:43:57;;;;;;;1.58;1.20;;;;;;;;;;4951881;28;20070;-74
2023/06/30 09:46:23;;;;;;;3.97;2.30;;;;;;;;;;4952967;28;20027;-74
2023/06/30 09:48:53;;;;;;;2.50;1.48;;;;;;;;;;4952263;28;20038;-74
2023/06/30 09:51:21;;;;;;;2.00;1.67;;;;;;;;;;4949076;28;20570;-74
2023/06/30 09:53:46;;;;;;;4.10;1.63;;;;;;;;;;4956519;28;20041;-74
2023/06/30 09:56:20;;;;;;;3.40;1.10;;;;;;;;;;4949209;28;20031;-74
2023/06/30 09:58:46;;;;;;;2.17;1.17;;;;;;;;;;4950101;28;20027;-74
2023/06/30 10:01:11;;;;;;;2.00;1.50;;;;;;;;;;4952266;28;20045;-74
2023/06/30 10:03:50;;;;;;;2.00;1.40;;;;;;;;;;4950568;28;20031;-74
2023/06/30 10:06:17;;;;;;;2.53;1.88;;;;;;;;;;4954480;28;20095;-76
2023/06/30 10:08:45;;;;;;;2.25;1.75;;;;;;;;;;4956622;28;20023;-75
2023/06/30 10:11:10;;;;;;;2.65;1.77;;;;;;;;;;4955478;28;20386;-76
2023/06/30 10:13:38;;;;;;;1.50;1.30;;;;;;;;;;4956206;28;20023;-74
2023/06/30 10:16:06;;;;;;;3.03;1.60;;;;;;;;;;4949366;28;20035;-75
2023/06/30 10:18:35;;;;;;;2.42;1.80;;;;;;;;;;4952224;28;20042;-74
2023/06/30 10:21:01;;;;;;;3.33;1.63;;;;;;;;;;4952824;28;20388;-74
2023/06/30 10:23:27;;;;;;;2.53;2.33;;;;;;;;;;4954784;28;20487;-74
2023/06/30 10:25:54;;;;;;;1.55;1.42;;;;;;;;;;4952736;28;20113;-74
2023/06/30 10:28:20;;;;;;;2.33;1.80;;;;;;;;;;4954538;28;20023;-74
2023/06/30 10:30:50;;;;;;;3.13;2.13;;;;;;;;;;4949081;28;20027;-74
2023/06/30 10:33:16;;;;;;;4.47;2.97;;;;;;;;;;4954858;28;20027;-75
2023/06/30 10:35:41;;;;;;;3.58;2.88;;;;;;;;;;4951616;28;20030;-76
2023/06/30 10:38:08;;;;;;;3.35;2.88;;;;;;;;;;4947496;28;20570;-76
2023/06/30 10:40:33;;;;;;;2.55;1.95;;;;;;;;;;4958905;28;20126;-76
2023/06/30 10:42:59;;;;;;;4.22;3.67;;;;;;;;;;4951977;28;20114;-75
2023/06/30 10:45:30;;;;;;;3.33;3.03;;;;;;;;;;4951813;28;20113;-75
2023/06/30 10:47:56;;;;;;;2.25;2.00;;;;;;;;;;4951045;28;20083;-75
2023/06/30 10:50:22;;;;;;;5.07;3.22;;;;;;;;;;4953959;28;20439;-74
2023/06/30 10:52:49;;;;;;;4.28;3.55;;;;;;;;;;4950422;28;20070;-74
2023/06/30 10:55:15;;;;;;;4.13;3.72;;;;;;;;;;4950420;28;20545;-74
2023/06/30 10:57:40;;;;;;;4.60;4.18;;;;;;;;;;4955600;28;20031;-74
2023/06/30 11:00:06;;;;;;;5.00;4.40;;;;;;;;;;4952272;28;20365;-74
2023/06/30 11:02:33;;;;;;;2.35;2.15;;;;;;;;;;4948939;28;20023;-74
2023/06/30 11:05:19;;;;;;;4.50;4.00;;;;;;;;;;4949380;28;20054;-74
2023/06/30 11:08:07;;;;;;;3.22;2.40;;;;;;;;;;4965483;23;20053;-78
2023/06/30 11:10:32;;;;;;;6.30;5.43;;;;;;;;;;4963642;28;20144;-78
2023/06/30 11:13:10;;;;;;;5.45;4.95;;;;;;;;;;4967280;28;20475;-78
2023/06/30 11:15:44;;;;;;;5.32;4.82;;;;;;;;;;4975619;28;20093;-79
2023/06/30 11:18:20;;;;;;;6.63;6.03;;;;;;;;;;4988006;28;20031;-78
2023/06/30 11:21:03;;;;;;;7.22;6.18;;;;;;;;;;4968568;28;20089;-78
2023/06/30 11:23:38;;;;;;;5.00;4.18;;;;;;;;;;4963868;28;20034;-78
2023/06/30 11:26:17;;;;;;;3.42;3.13;;;;;;;;;;4975328;28;20026;-78
2023/06/30 11:28:49;;;;;;;3.78;3.45;;;;;;;;;;4973880;28;20402;-78
2023/06/30 11:31:16;;;;;;;7.07;6.38;;;;;;;;;;4970783;28;20034;-78
2023/06/30 11:33:42;;;;;;;6.97;6.15;;;;;;;;;;4959057;28;20496;-77
2023/06/30 11:36:15;;;;;;;6.38;5.07;;;;;;;;;;4968941;28;20022;-78
2023/06/30 11:38:48;;;;;;;6.82;6.13;;;;;;;;;;4972113;28;20387;-79
2023/06/30 11:41:23;;;;;;;8.98;7.25;;;;;;;;;;4965711;28;20035;-77
2023/06/30 11:43:58;;;;;;;7.70;6.93;;;;;;;;;;4962798;28;20023;-77
2023/06/30 11:46:23;;;;;;;6.35;5.75;;;;;;;;;;4964245;28;20398;-78
2023/06/30 11:48:49;;;;;;;8.32;6.43;;;;;;;;;;4976398;28;20022;-77
2023/06/30 11:51:16;;;;;;;5.45;4.55;;;;;;;;;;4977806;28;20023;-78
2023/06/30 11:53:48;;;;;;;4.63;4.22;;;;;;;;;;4973818;28;20041;-78
2023/06/30 11:56:13;;;;;;;7.28;5.97;;;;;;;;;;4964771;28;20030;-78
2023/06/30 11:58:52;;;;;;;4.97;4.47;;;;;;;;;;4971671;28;20443;-77
2023/06/30 12:01:19;;;;;;;4.40;4.00;;;;;;;;;;4968574;28;20039;-78
2023/06/30 12:03:45;;;;;;;6.38;5.78;;;;;;;;;;4974544;28;20022;-78
2023/06/30 12:06:16;;;;;;;4.70;4.20;;;;;;;;;;4969011;28;20135;-78
2023/06/30 12:08:41;;;;;;;4.13;3.72;;;;;;;;;;4960048;28;20542;-77
2023/06/30 12:11:07;;;;;;;5.05;4.53;;;;;;;;;;4978854;28;20054;-77
2023/06/30 12:13:32;;;;;;;4.80;4.30;;;;;;;;;;4975232;28;20023;-76
2023/06/30 12:15:59;;;;;;;4.00;3.60;;;;;;;;;;4968204;28;20054;-77
2023/06/30 12:18:37;;;;;;;4.05;3.67;;;;;;;;;;4969545;28;20788;-77
2023/06/30 12:21:09;;;;;;;5.18;4.43;;;;;;;;;;4972388;28;20082;-78
2023/06/30 12:23:43;;;;;;;5.18;4.68;;;;;;;;;;4973103;28;20034;-78
2023/06/30 12:26:10;;;;;;;3.83;3.53;;;;;;;;;;4968619;28;20030;-79
2023/06/30 12:28:35;;;;;;;5.28;4.78;;;;;;;;;;4960906;28;20030;-77
2023/06/30 12:31:00;;;;;;;4.68;4.18;;;;;;;;;;4965820;28;20030;-78
2023/06/30 12:33:28;;;;;;;5.10;4.57;;;;;;;;;;4966596;28;20479;-78
2023/06/30 12:35:54;;;;;;;5.07;4.57;;;;;;;;;;4975209;28;20054;-78
2023/06/30 12:38:19;;;;;;;5.28;4.75;;;;;;;;;;4967044;28;20392;-77
2023/06/30 12:40:44;;;;;;;6.72;5.45;;;;;;;;;;4966079;28;20093;-76
2023/06/30 12:43:10;;;;;;;7.63;6.30;;;;;;;;;;4971875;28;20031;-76
2023/06/30 12:45:35;;;;;;;7.43;5.93;;;;;;;;;;4957144;28;20041;-77
2023/06/30 12:48:01;;;;;;;7.30;6.20;;;;;;;;;;4973250;28;20064;-76
2023/06/30 12:50:27;;;;;;;7.15;5.82;;;;;;;;;;4963918;28;20032;-77
2023/06/30 12:52:52;;;;;;;7.22;6.32;;;;;;;;;;4969374;28;20045;-76
2023/06/30 12:55:22;;;;;;;5.50;4.90;;;;;;;;;;4970414;28;20081;-77
2023/06/30 12:57:48;;;;;;;5.30;4.35;;;;;;;;;;4969873;28;20454;-77
2023/06/30 13:00:15;;;;;;;7.78;6.03;;;;;;;;;;4973678;28;20042;-77
2023/06/30 13:02:40;;;;;;;6.25;5.35;;;;;;;;;;4970968;28;20113;-77
2023/06/30 13:05:06;;;;;;;5.07;4.57;;;;;;;;;;4974121;28;20104;-77
2023/06/30 13:07:32;;;;;;;5.07;4.28;;;;;;;;;;4967621;28;20046;-77
2023/06/30 13:09:59;;;;;;;7.50;5.70;;;;;;;;;;4966083;28;20022;-76
2023/06/30 13:12:26;;;;;;;5.70;5.07;;;;;;;;;;4964723;28;20018;-77
2023/06/30 13:14:53;;;;;;;5.15;4.65;;;;;;;;;;4968479;28;20081;-77
2023/06/30 13:17:20;;;;;;;5.57;4.97;;;;;;;;;;4971013;28;20329;-77
2023/06/30 13:19:45;;;;;;;7.13;6.20;;;;;;;;;;4968737;28;20043;-77
2023/06/30 13:22:12;;;;;;;7.25;6.03;;;;;;;;;;4966761;28;20059;-77
2023/06/30 13:24:37;;;;;;;9.93;7.40;;;;;;;;;;4969850;28;20041;-76
2023/06/30 13:27:03;;;;;;;10.45;7.88;;;;;;;;;;4970330;28;20023;-76
2023/06/30 13:29:28;;;;;;;4.93;4.43;;;;;;;;;;4969691;28;20673;-78
2023/06/30 13:31:54;;;;;;;8.55;7.43;;;;;;;;;;4968306;28;20371;-77
2023/06/30 13:34:20;;;;;;;6.97;5.95;;;;;;;;;;4967216;28;20115;-77
2023/06/30 13:36:45;;;;;;;5.38;4.78;;;;;;;;;;4970231;28;20031;-76
2023/06/30 13:39:11;;;;;;;8.85;6.25;;;;;;;;;;4968924;28;20078;-77
2023/06/30 13:41:36;;;;;;;6.65;5.57;;;;;;;;;;4965038;28;20046;-78
2023/06/30 13:44:03;;;;;;;6.15;5.22;;;;;;;;;;4971228;28;20083;-78
2023/06/30 13:46:28;;;;;;;7.32;5.03;;;;;;;;;;4968294;28;20113;-77
2023/06/30 13:48:54;;;;;;;5.80;4.95;;;;;;;;;;4965146;28;20468;-77
2023/06/30 13:51:21;;;;;;;5.00;4.15;;;;;;;;;;4972834;28;20046;-78
2023/06/30 13:53:46;;;;;;;4.88;3.50;;;;;;;;;;4972557;28;20026;-77
2023/06/30 13:56:12;;;;;;;3.92;3.53;;;;;;;;;;4971230;28;20033;-77
2023/06/30 13:58:37;;;;;;;4.55;3.97;;;;;;;;;;4973251;28;20030;-78
2023/06/30 14:01:03;;;;;;;4.38;3.67;;;;;;;;;;4975210;28;20031;-77
2023/06/30 14:03:28;;;;;;;5.07;3.75;;;;;;;;;;4973685;28;20085;-78
2023/06/30 14:05:53;;;;;;;4.75;3.55;;;;;;;;;;4970078;28;20479;-79
2023/06/30 14:08:22;;;;;;;7.85;3.58;;;;;;;;;;4971643;28;20026;-78
2023/06/30 14:10:47;;;;;;;5.00;3.30;;;;;;;;;;4974861;28;20429;-77
2023/06/30 14:13:13;;;;;;;7.00;3.35;;;;;;;;;;4972184;28;20064;-78
2023/06/30 14:15:38;;;;;;;3.33;2.85;;;;;;;;;;4971287;28;20110;-78
2023/06/30 14:18:04;;;;;;;3.45;2.47;;;;;;;;;;4968837;28;20073;-76
2023/06/30 14:20:29;;;;;;;4.72;2.80;;;;;;;;;;4963157;28;20039;-77
2023/06/30 14:22:55;;;;;;;2.58;2.38;;;;;;;;;;4964539;28;20030;-79
2023/06/30 14:25:23;;;;;;;3.40;2.70;;;;;;;;;;4966932;28;20034;-77
2023/06/30 14:27:50;;;;;;;4.63;2.53;;;;;;;;;;4964617;28;20058;-77
2023/06/30 14:30:16;;;;;;;3.13;2.80;;;;;;;;;;4968325;28;20029;-76
2023/06/30 14:32:43;;;;;;;3.25;2.80;;;;;;;;;;4964970;28;20082;-76